Time;durP1;ratioP1;P1;durP2;ratioP2;P2;SDS_P1;SDS_P2;PMS_P1;PMS_P2;Temp;Humidity;BMP_temperature;BMP_pressure;BME280_temperature;BME280_humidity;BME280_pressure;Samples;Min_cycle;Max_cycle;Signal;HPM_P1;HPM_P2
2022/07/07 00:00:41;;;;;;;3.00;2.10;;;13.60;99.90;;;;;;4965911;28;20245;-86
2022/07/07 00:03:08;;;;;;;3.23;1.83;;;13.60;99.90;;;;;;4974343;28;20251;-85
2022/07/07 00:05:39;;;;;;;2.70;1.70;;;13.50;99.90;;;;;;4966640;28;20196;-86
2022/07/07 00:08:07;;;;;;;6.33;1.97;;;13.50;1.00;;;;;;4954773;29;20279;-84
2022/07/07 00:10:35;;;;;;;2.73;1.87;;;13.40;1.00;;;;;;4955007;28;20191;-85
2022/07/07 00:13:02;;;;;;;3.60;1.60;;;13.40;1.00;;;;;;4955020;29;20203;-85
2022/07/07 00:15:29;;;;;;;5.40;1.90;;;13.30;1.00;;;;;;4954528;28;20227;-85
2022/07/07 00:17:57;;;;;;;4.50;1.97;;;13.30;1.00;;;;;;4954818;28;20218;-86
2022/07/07 00:20:24;;;;;;;3.23;1.93;;;13.30;1.00;;;;;;4954868;29;20254;-85
2022/07/07 00:22:51;;;;;;;5.23;2.13;;;13.30;1.00;;;;;;4954933;29;20206;-85
2022/07/07 00:25:18;;;;;;;3.30;1.77;;;13.20;1.00;;;;;;4962740;28;20650;-84
2022/07/07 00:27:47;;;;;;;2.63;1.83;;;13.20;1.00;;;;;;4974077;28;20301;-85
2022/07/07 00:30:14;;;;;;;4.23;2.00;;;13.30;1.00;;;;;;4973320;28;20664;-86
2022/07/07 00:32:41;;;;;;;4.93;2.60;;;13.20;1.00;;;;;;4973749;28;20656;-85
2022/07/07 00:35:09;;;;;;;7.23;3.70;;;13.30;1.00;;;;;;4966307;28;20657;-84
2022/07/07 00:37:36;;;;;;;6.00;3.20;;;13.30;1.00;;;;;;4954228;28;20705;-85
2022/07/07 00:40:04;;;;;;;5.37;2.17;;;13.30;1.00;;;;;;4962475;28;20195;-84
2022/07/07 00:42:31;;;;;;;2.07;1.80;;;13.30;1.00;;;;;;4969996;28;20204;-84
2022/07/07 00:45:00;;;;;;;2.27;1.90;;;13.30;1.00;;;;;;4960811;28;20216;-84
2022/07/07 00:47:28;;;;;;;5.37;1.87;;;13.30;1.00;;;;;;4973686;28;20209;-85
2022/07/07 00:49:56;;;;;;;6.20;1.70;;;13.30;1.00;;;;;;4968320;28;20211;-85
2022/07/07 00:52:23;;;;;;;4.53;1.73;;;13.30;1.00;;;;;;4954773;29;20242;-85
2022/07/07 00:54:55;;;;;;;1.67;1.37;;;13.20;1.00;;;;;;4954680;28;20201;-84
2022/07/07 00:57:24;;;;;;;2.20;1.40;;;13.20;1.00;;;;;;4954709;29;20285;-84
2022/07/07 00:59:51;;;;;;;2.70;1.80;;;13.20;1.00;;;;;;4958310;28;20241;-86
2022/07/07 01:02:19;;;;;;;2.50;1.57;;;13.20;1.00;;;;;;4973424;28;20547;-83
2022/07/07 01:04:46;;;;;;;2.43;1.50;;;13.20;1.00;;;;;;4969040;28;20192;-86
2022/07/07 01:07:14;;;;;;;7.63;2.00;;;13.10;1.00;;;;;;4954023;28;20200;-84
2022/07/07 01:09:43;;;;;;;3.37;1.90;;;13.10;1.00;;;;;;4960890;28;20187;-84
2022/07/07 01:12:10;;;;;;;3.33;1.80;;;13.10;1.00;;;;;;4957043;28;20199;-84
2022/07/07 01:14:40;;;;;;;2.33;1.70;;;13.00;1.40;;;;;;4976889;28;20592;-84
2022/07/07 01:17:07;;;;;;;3.20;1.50;;;13.00;99.90;;;;;;4958631;28;20222;-83
2022/07/07 01:19:35;;;;;;;1.60;1.50;;;13.00;87.10;;;;;;4958151;29;20198;-84
2022/07/07 01:22:10;;;;;;;1.93;1.57;;;13.00;99.90;;;;;;4957971;29;20224;-85
2022/07/07 01:24:38;;;;;;;3.87;1.53;;;13.00;99.90;;;;;;4958113;28;20189;-83
2022/07/07 01:27:06;;;;;;;1.93;1.43;;;13.00;99.90;;;;;;4957680;29;20206;-84
2022/07/07 01:29:37;;;;;;;2.03;1.33;;;13.00;99.90;;;;;;4957931;28;20206;-84
2022/07/07 01:32:07;;;;;;;2.20;1.27;;;12.90;99.90;;;;;;4975120;28;20197;-85
2022/07/07 01:34:35;;;;;;;1.73;1.43;;;12.90;99.90;;;;;;4976799;28;20668;-85
2022/07/07 01:37:02;;;;;;;3.23;1.60;;;12.90;99.90;;;;;;4974351;28;20216;-85
2022/07/07 01:39:29;;;;;;;2.87;1.50;;;12.90;99.90;;;;;;4957797;28;20755;-83
2022/07/07 01:41:57;;;;;;;3.30;1.33;;;12.90;99.90;;;;;;4957570;29;20199;-86
2022/07/07 01:44:25;;;;;;;3.60;1.57;;;13.00;99.90;;;;;;4975253;28;20194;-84
2022/07/07 01:46:52;;;;;;;2.60;1.60;;;13.00;99.90;;;;;;4977339;28;20258;-86
2022/07/07 01:49:19;;;;;;;4.03;1.63;;;13.10;99.90;;;;;;4976786;28;20289;-83
2022/07/07 01:51:46;;;;;;;5.50;1.93;;;13.10;99.90;;;;;;4976777;28;20210;-84
2022/07/07 01:54:13;;;;;;;4.67;1.90;;;13.10;99.90;;;;;;4976547;28;20196;-84
2022/07/07 01:56:40;;;;;;;4.07;1.90;;;13.20;99.90;;;;;;4976721;28;20201;-84
2022/07/07 01:59:09;;;;;;;4.73;1.80;;;13.20;99.90;;;;;;4976666;28;20226;-85
2022/07/07 02:01:36;;;;;;;4.77;1.73;;;13.20;99.90;;;;;;4957538;28;20294;-85
2022/07/07 02:04:04;;;;;;;3.77;1.93;;;13.20;1.00;;;;;;4956981;29;20199;-85
2022/07/07 02:06:31;;;;;;;4.70;2.10;;;13.20;1.00;;;;;;4957174;29;20193;-84
2022/07/07 02:08:58;;;;;;;5.30;2.10;;;13.20;1.00;;;;;;4956751;28;20199;-83
2022/07/07 02:11:25;;;;;;;4.60;2.00;;;13.20;1.00;;;;;;4956776;28;20558;-84
2022/07/07 02:13:53;;;;;;;4.80;2.10;;;13.30;1.00;;;;;;4956966;28;20196;-85
2022/07/07 02:16:25;;;;;;;3.20;2.30;;;13.30;1.00;;;;;;4957469;28;20223;-84
2022/07/07 02:18:55;;;;;;;4.80;2.10;;;13.40;1.00;;;;;;4957238;29;20208;-84
2022/07/07 02:21:23;;;;;;;3.60;1.90;;;13.40;1.00;;;;;;4956943;29;20200;-84
2022/07/07 02:23:52;;;;;;;3.93;2.20;;;13.40;1.00;;;;;;4956298;28;20235;-86
2022/07/07 02:26:19;;;;;;;4.40;2.00;;;13.40;1.00;;;;;;4971019;28;20558;-84
2022/07/07 02:28:46;;;;;;;3.60;1.90;;;13.50;1.00;;;;;;4976211;28;20210;-84
2022/07/07 02:31:14;;;;;;;2.93;1.87;;;13.50;1.00;;;;;;4970004;28;20192;-85
2022/07/07 02:33:43;;;;;;;3.13;1.80;;;13.50;1.00;;;;;;4975763;28;20204;-84
2022/07/07 02:36:11;;;;;;;3.67;1.90;;;13.50;1.00;;;;;;4975054;28;20192;-84
2022/07/07 02:38:38;;;;;;;3.30;2.27;;;13.50;1.00;;;;;;4968961;28;20775;-84
2022/07/07 02:41:06;;;;;;;3.60;2.00;;;13.50;1.00;;;;;;4967864;28;20225;-85
2022/07/07 02:43:33;;;;;;;2.60;1.60;;;13.50;1.00;;;;;;4975566;28;20196;-85
2022/07/07 02:46:00;;;;;;;3.73;2.00;;;13.50;1.00;;;;;;4970099;28;20559;-84
2022/07/07 02:48:28;;;;;;;5.43;2.00;;;13.50;1.00;;;;;;4956087;28;20552;-85
2022/07/07 02:50:56;;;;;;;3.87;2.07;;;13.60;1.00;;;;;;4956662;28;20199;-85
2022/07/07 02:53:24;;;;;;;4.53;1.97;;;13.50;1.00;;;;;;4974522;28;20192;-86
2022/07/07 02:55:51;;;;;;;3.93;1.73;;;13.50;1.00;;;;;;4965477;28;20673;-84
2022/07/07 02:58:22;;;;;;;10.13;1.83;;;13.60;1.00;;;;;;4956145;29;20221;-83
2022/07/07 03:00:51;;;;;;;3.93;1.70;;;13.50;1.00;;;;;;4968886;28;20184;-84
2022/07/07 03:03:18;;;;;;;2.00;1.73;;;13.60;1.00;;;;;;4974885;28;20191;-86
2022/07/07 03:05:45;;;;;;;3.60;1.70;;;13.60;1.00;;;;;;4963569;28;20195;-86
2022/07/07 03:08:14;;;;;;;4.83;2.00;;;13.60;1.00;;;;;;4967419;28;20197;-85
2022/07/07 03:11:00;;;;;;;2.20;1.90;;;13.60;1.00;;;;;;4972303;29;20200;-88
2022/07/07 03:13:28;;;;;;;3.07;1.70;;;13.70;1.00;;;;;;4970422;28;20264;-83
2022/07/07 03:15:55;;;;;;;3.50;1.83;;;13.60;1.00;;;;;;4956354;29;20750;-84
2022/07/07 03:18:22;;;;;;;3.10;1.80;;;13.70;1.00;;;;;;4959839;29;20298;-85
2022/07/07 03:20:55;;;;;;;2.93;1.70;;;13.70;1.00;;;;;;4958980;28;20199;-88
2022/07/07 03:23:26;;;;;;;4.40;1.60;;;13.70;1.00;;;;;;4966001;28;20202;-86
2022/07/07 03:26:00;;;;;;;2.23;1.70;;;13.70;99.90;;;;;;4980233;28;20205;-88
2022/07/07 03:28:34;;;;;;;3.33;1.70;;;13.80;99.90;;;;;;4979414;28;20247;-85
2022/07/07 03:31:13;;;;;;;3.30;1.90;;;13.70;99.90;;;;;;4994009;28;20217;-88
2022/07/07 03:33:40;;;;;;;2.37;1.37;;;13.70;99.90;;;;;;4991725;28;20185;-85
2022/07/07 03:36:08;;;;;;;2.93;1.70;;;13.70;99.90;;;;;;4965860;28;20250;-86
2022/07/07 03:38:36;;;;;;;8.73;1.70;;;13.70;99.90;;;;;;4965256;28;20215;-86
2022/07/07 03:41:04;;;;;;;2.27;1.70;;;13.60;99.90;;;;;;4971151;28;20188;-83
2022/07/07 03:43:31;;;;;;;2.30;1.67;;;13.60;1.00;;;;;;4981906;28;20581;-83
2022/07/07 03:45:58;;;;;;;3.67;1.50;;;13.50;1.00;;;;;;4987082;28;20196;-87
2022/07/07 03:48:29;;;;;;;2.00;1.50;;;13.60;1.00;;;;;;4988109;28;20199;-89
2022/07/07 03:50:56;;;;;;;2.47;1.67;;;13.60;1.00;;;;;;4985456;28;20175;-85
2022/07/07 03:53:23;;;;;;;2.00;1.40;;;13.60;1.00;;;;;;4981476;28;20183;-86
2022/07/07 03:55:51;;;;;;;2.23;1.30;;;13.70;1.00;;;;;;4987226;28;20207;-85
2022/07/07 03:58:18;;;;;;;2.15;1.50;;;13.70;1.00;;;;;;4986033;28;20210;-86
2022/07/07 04:00:45;;;;;;;3.55;1.40;;;13.80;1.00;;;;;;4982731;28;20443;-85
2022/07/07 04:03:12;;;;;;;3.07;1.50;;;13.90;26.30;;;;;;4983015;28;20198;-85
2022/07/07 04:05:39;;;;;;;3.57;1.63;;;13.90;99.00;;;;;;4976730;28;20203;-85
2022/07/07 04:08:13;;;;;;;2.73;1.20;;;14.00;45.90;;;;;;4968808;29;20208;-86
2022/07/07 04:10:48;;;;;;;2.03;1.30;;;14.10;95.10;;;;;;4965428;29;20238;-88
2022/07/07 04:13:16;;;;;;;1.43;1.30;;;14.10;99.90;;;;;;4961565;28;20221;-87
2022/07/07 04:15:43;;;;;;;2.57;1.20;;;14.20;99.90;;;;;;4962035;28;20232;-85
2022/07/07 04:18:11;;;;;;;6.47;1.50;;;14.20;59.80;;;;;;4977766;28;20184;-87
2022/07/07 04:20:38;;;;;;;2.50;1.40;;;14.20;94.60;;;;;;4980919;28;20193;-84
2022/07/07 04:23:17;;;;;;;5.30;1.73;;;14.30;99.90;;;;;;4985184;28;20188;-88
2022/07/07 04:25:44;;;;;;;3.70;1.20;;;14.30;99.90;;;;;;4985233;28;20647;-84
2022/07/07 04:28:16;;;;;;;3.23;1.93;;;14.30;99.90;;;;;;4982565;28;20216;-85
2022/07/07 04:30:45;;;;;;;3.60;1.50;;;14.40;99.90;;;;;;4978653;28;20661;-85
2022/07/07 04:33:12;;;;;;;4.60;1.70;;;14.40;99.90;;;;;;4978775;28;20254;-85
2022/07/07 04:35:43;;;;;;;4.67;1.77;;;14.50;99.90;;;;;;4981099;28;20277;-83
2022/07/07 04:38:10;;;;;;;2.83;1.20;;;14.60;99.90;;;;;;4977433;28;20282;-84
2022/07/07 04:40:37;;;;;;;2.47;1.40;;;14.70;99.90;;;;;;4979029;28;20186;-84
2022/07/07 04:43:04;;;;;;;5.30;1.43;;;14.70;99.90;;;;;;4980261;28;20205;-86
2022/07/07 04:45:31;;;;;;;1.80;1.50;;;14.80;99.90;;;;;;4976514;28;20204;-85
2022/07/07 04:48:00;;;;;;;4.50;1.30;;;14.90;99.90;;;;;;4977547;28;20205;-85
2022/07/07 04:50:27;;;;;;;2.00;1.20;;;14.90;99.90;;;;;;4975380;28;20208;-85
2022/07/07 04:52:54;;;;;;;1.67;1.20;;;14.90;99.90;;;;;;4976407;28;20188;-83
2022/07/07 04:55:21;;;;;;;2.70;1.23;;;14.90;99.90;;;;;;4978036;28;20613;-86
2022/07/07 04:57:48;;;;;;;2.40;1.30;;;14.90;99.90;;;;;;4978243;28;20201;-83
2022/07/07 05:00:16;;;;;;;2.53;1.30;;;15.00;99.90;;;;;;4982480;28;20229;-83
2022/07/07 05:02:43;;;;;;;1.20;1.10;;;15.00;28.40;;;;;;4973328;28;20199;-83
2022/07/07 05:05:51;;;;;;;5.47;1.50;;;15.00;1.00;;;;;;4994968;28;20221;-87
2022/07/07 05:09:08;;;;;;;2.23;1.83;;;15.00;14.10;;;;;;4985053;28;20221;-91
2022/07/07 05:12:04;;;;;;;2.00;1.37;;;15.00;1.00;;;;;;4918664;29;20217;-90
2022/07/07 05:14:52;;;;;;;2.10;1.30;;;14.90;99.90;;;;;;4913907;29;20229;-90
2022/07/07 05:17:20;;;;;;;2.67;1.37;;;15.00;99.90;;;;;;4900274;29;20200;-89
2022/07/07 05:19:47;;;;;;;1.67;1.27;;;15.00;1.00;;;;;;4919829;28;20250;-92
2022/07/07 05:22:14;;;;;;;4.73;1.63;;;15.00;43.20;;;;;;4978769;28;20204;-90
2022/07/07 05:27:31;;;;;;;2.63;1.40;;;15.10;99.90;;;;;;4956678;28;20212;-93
2022/07/07 05:33:12;;;;;;;;;;;;;;;;;;;;;
2022/07/07 05:35:40;;;;;;;3.50;1.30;;;15.30;99.90;;;;;;4997036;28;20183;-90
2022/07/07 05:38:21;;;;;;;5.30;1.80;;;15.30;99.90;;;;;;4996672;28;20638;-90
2022/07/07 05:40:55;;;;;;;4.03;1.60;;;15.50;99.90;;;;;;4996878;28;20223;-89
2022/07/07 05:43:28;;;;;;;4.77;1.60;;;15.60;99.90;;;;;;4996776;28;20199;-90
2022/07/07 05:46:02;;;;;;;3.70;1.50;;;15.70;99.90;;;;;;4996610;28;20197;-91
2022/07/07 05:48:39;;;;;;;2.33;1.20;;;15.80;1.00;;;;;;4996823;28;20240;-90
2022/07/07 05:51:13;;;;;;;3.20;1.30;;;15.80;1.00;;;;;;4996785;28;20193;-91
2022/07/07 05:54:07;;;;;;;2.40;1.60;;;15.90;1.00;;;;;;4996471;28;20196;-91
2022/07/07 05:56:44;;;;;;;2.67;1.33;;;15.90;1.00;;;;;;4969974;28;20217;-89
2022/07/07 05:59:25;;;;;;;1.95;1.40;;;16.00;1.00;;;;;;4999470;28;20237;-92
2022/07/07 06:01:59;;;;;;;6.93;1.35;;;16.10;1.00;;;;;;5000336;28;20276;-92
2022/07/07 06:04:48;;;;;;;1.90;1.33;;;16.20;1.00;;;;;;5000268;28;20257;-90
2022/07/07 06:07:35;;;;;;;2.50;1.40;;;16.40;1.00;;;;;;4999869;28;20205;-91
2022/07/07 06:10:04;;;;;;;4.55;1.20;;;16.50;1.00;;;;;;4999899;28;20257;-89
2022/07/07 06:12:37;;;;;;;3.20;1.30;;;16.60;1.00;;;;;;4999901;28;20205;-92
2022/07/07 06:15:08;;;;;;;4.15;1.30;;;16.80;99.90;;;;;;4999945;28;20223;-91
2022/07/07 06:17:44;;;;;;;1.90;1.33;;;16.90;99.90;;;;;;5000214;28;20207;-91
2022/07/07 06:20:19;;;;;;;3.30;1.60;;;16.90;99.90;;;;;;4999679;28;20254;-90
2022/07/07 06:25:46;;;;;;;4.07;1.50;;;17.20;99.90;;;;;;4998564;28;20238;-92
2022/07/07 06:28:22;;;;;;;1.98;1.20;;;17.40;99.90;;;;;;4999977;28;20210;-92
2022/07/07 06:31:00;;;;;;;2.00;1.30;;;17.80;99.90;;;;;;4999529;28;20203;-88
2022/07/07 06:33:33;;;;;;;2.83;1.10;;;18.20;99.90;;;;;;4999132;28;20191;-92
2022/07/07 06:36:11;;;;;;;4.50;1.30;;;18.60;99.90;;;;;;4998826;28;20649;-92
2022/07/07 06:38:54;;;;;;;3.10;1.45;;;18.90;1.00;;;;;;4999316;28;20215;-90
2022/07/07 06:41:46;;;;;;;4.68;1.55;;;19.00;72.30;;;;;;4999801;28;20280;-92
2022/07/07 06:44:13;;;;;;;2.47;1.40;;;18.90;67.60;;;;;;4978849;28;20203;-90
2022/07/07 06:46:42;;;;;;;7.00;1.35;;;18.80;9.00;;;;;;4974558;28;20188;-90
2022/07/07 06:49:09;;;;;;;4.40;1.23;;;18.70;1.00;;;;;;4976392;28;20192;-91
2022/07/07 06:51:36;;;;;;;3.67;1.10;;;18.60;39.40;;;;;;4969482;28;20710;-90
2022/07/07 06:54:04;;;;;;;4.22;1.20;;;18.50;1.00;;;;;;4964801;28;20232;-90
2022/07/07 06:56:31;;;;;;;2.55;1.23;;;18.40;1.00;;;;;;4968084;28;20197;-89
2022/07/07 06:59:17;;;;;;;2.05;0.90;;;18.20;1.00;;;;;;4969684;28;20201;-92
2022/07/07 07:01:46;;;;;;;4.75;1.40;;;17.90;1.00;;;;;;4969453;28;20287;-88
2022/07/07 07:04:14;;;;;;;2.70;1.20;;;17.70;1.00;;;;;;4978426;28;20199;-90
2022/07/07 07:06:42;;;;;;;2.13;1.25;;;17.50;60.20;;;;;;4972754;28;20207;-88
2022/07/07 07:09:13;;;;;;;20.63;10.15;;;17.40;99.90;;;;;;4967213;28;20216;-94
2022/07/07 07:11:45;;;;;;;12.13;5.25;;;17.30;99.90;;;;;;4967346;28;20200;-94
2022/07/07 07:14:14;;;;;;;3.33;1.77;;;17.20;1.00;;;;;;4969515;28;20197;-93
2022/07/07 07:16:51;;;;;;;18.88;10.15;;;17.10;1.00;;;;;;4967714;28;20199;-93
2022/07/07 07:19:18;;;;;;;8.98;3.90;;;17.00;1.00;;;;;;4964349;28;20594;-88
2022/07/07 07:21:45;;;;;;;12.15;6.65;;;16.80;1.00;;;;;;4962501;28;20250;-90
2022/07/07 07:24:16;;;;;;;7.85;3.83;;;16.80;1.00;;;;;;4970620;28;20205;-94
2022/07/07 07:26:44;;;;;;;3.70;1.67;;;16.60;1.00;;;;;;4961376;28;20640;-90
2022/07/07 07:29:11;;;;;;;4.82;1.70;;;16.60;1.00;;;;;;4961731;28;20649;-88
2022/07/07 07:31:38;;;;;;;2.33;1.37;;;16.50;99.90;;;;;;4965756;28;20198;-90
2022/07/07 07:34:07;;;;;;;3.67;2.53;;;16.40;99.90;;;;;;4963388;28;20199;-91
2022/07/07 07:36:34;;;;;;;5.45;1.70;;;16.40;1.00;;;;;;4965209;28;20195;-89
2022/07/07 07:39:02;;;;;;;4.38;1.60;;;16.40;1.00;;;;;;4962049;28;20209;-89
2022/07/07 07:41:29;;;;;;;2.45;1.55;;;16.40;1.00;;;;;;4964228;28;20348;-92
2022/07/07 07:43:57;;;;;;;2.25;1.65;;;16.40;1.00;;;;;;4967275;28;20664;-89
2022/07/07 07:46:24;;;;;;;4.03;1.80;;;16.40;1.00;;;;;;4964594;28;20196;-88
2022/07/07 07:48:51;;;;;;;1.77;1.45;;;16.50;1.00;;;;;;4966792;28;20229;-90
2022/07/07 07:51:20;;;;;;;4.72;1.88;;;16.50;1.00;;;;;;4964403;28;20271;-88
2022/07/07 07:53:47;;;;;;;1.80;1.50;;;16.60;83.60;;;;;;4961535;28;20646;-89
2022/07/07 07:56:14;;;;;;;5.88;1.60;;;16.70;9.20;;;;;;4966686;28;20564;-89
2022/07/07 07:58:42;;;;;;;2.78;1.40;;;16.60;1.00;;;;;;4965032;28;20204;-88
2022/07/07 08:01:10;;;;;;;3.92;1.63;;;16.60;1.00;;;;;;4965171;28;20225;-87
2022/07/07 08:03:37;;;;;;;4.80;1.70;;;16.70;1.00;;;;;;4958771;28;20196;-90
2022/07/07 08:06:04;;;;;;;2.50;2.00;;;16.70;1.00;;;;;;4957196;29;20198;-89
2022/07/07 08:08:33;;;;;;;3.95;1.85;;;16.60;1.00;;;;;;4955624;29;20586;-89
2022/07/07 08:11:00;;;;;;;4.95;2.42;;;16.60;1.00;;;;;;4956140;28;20207;-88
2022/07/07 08:13:27;;;;;;;7.40;3.20;;;16.60;1.00;;;;;;4957147;29;20205;-91
2022/07/07 08:15:56;;;;;;;3.97;2.20;;;16.50;1.00;;;;;;4957104;29;20235;-89
2022/07/07 08:18:24;;;;;;;16.83;5.80;;;16.50;1.00;;;;;;4964243;28;20201;-89
2022/07/07 08:20:51;;;;;;;3.05;1.88;;;16.50;1.00;;;;;;4968321;28;20303;-90
2022/07/07 08:23:18;;;;;;;3.25;1.92;;;16.50;20.30;;;;;;4961657;28;20194;-90
2022/07/07 08:25:47;;;;;;;3.05;2.20;;;16.40;99.90;;;;;;4967958;28;20288;-92
2022/07/07 08:28:14;;;;;;;4.72;2.40;;;16.30;99.90;;;;;;4965240;28;20195;-91
2022/07/07 08:30:41;;;;;;;5.50;2.25;;;16.10;99.90;;;;;;4964557;28;20200;-89
2022/07/07 08:33:09;;;;;;;4.20;2.07;;;16.10;1.00;;;;;;4963792;28;20191;-89
2022/07/07 08:35:36;;;;;;;2.33;2.03;;;16.00;1.00;;;;;;4967812;28;20563;-88
2022/07/07 08:38:04;;;;;;;3.10;2.20;;;16.00;20.30;;;;;;4963607;28;20204;-90
2022/07/07 08:40:31;;;;;;;1.93;1.70;;;16.00;99.90;;;;;;4966029;28;20281;-91
2022/07/07 08:42:59;;;;;;;2.05;1.70;;;16.00;1.00;;;;;;4962855;28;20570;-90
2022/07/07 08:45:28;;;;;;;2.30;1.83;;;15.90;1.00;;;;;;4961329;28;20551;-89
2022/07/07 08:47:56;;;;;;;5.37;2.70;;;15.90;1.00;;;;;;4965444;28;20212;-88
2022/07/07 08:50:23;;;;;;;3.42;2.30;;;15.80;1.00;;;;;;4959918;28;20195;-88
2022/07/07 08:52:54;;;;;;;2.40;2.20;;;15.90;1.00;;;;;;4965946;28;20764;-90
2022/07/07 08:55:22;;;;;;;3.60;2.30;;;15.80;99.90;;;;;;4971297;28;20197;-90
2022/07/07 08:57:52;;;;;;;2.13;1.93;;;15.80;1.00;;;;;;4967911;28;20198;-90
2022/07/07 09:00:21;;;;;;;2.37;2.17;;;15.80;1.00;;;;;;4960799;28;20224;-89
2022/07/07 09:02:49;;;;;;;2.93;1.77;;;15.80;1.00;;;;;;4956153;29;20562;-91
2022/07/07 09:05:16;;;;;;;3.00;2.20;;;15.80;99.90;;;;;;4955346;29;20195;-90
2022/07/07 09:07:48;;;;;;;2.93;2.70;;;15.80;99.90;;;;;;4956447;29;20703;-89
2022/07/07 09:10:29;;;;;;;3.40;2.73;;;15.90;99.90;;;;;;4956622;29;20197;-89
2022/07/07 09:12:56;;;;;;;3.27;2.77;;;15.90;1.00;;;;;;4956554;28;20242;-90
2022/07/07 09:15:25;;;;;;;3.05;2.75;;;15.90;99.90;;;;;;4962348;28;20282;-89
2022/07/07 09:17:53;;;;;;;2.80;2.60;;;16.00;99.90;;;;;;4963855;28;20255;-89
2022/07/07 09:20:20;;;;;;;3.38;2.55;;;16.00;1.00;;;;;;4967537;28;20217;-90
2022/07/07 09:22:50;;;;;;;4.65;3.00;;;16.00;1.00;;;;;;4968498;28;20207;-90
2022/07/07 09:25:21;;;;;;;4.63;2.97;;;15.90;48.80;;;;;;4974896;28;20231;-91
2022/07/07 09:27:55;;;;;;;3.83;3.43;;;15.90;99.90;;;;;;4965224;28;20210;-90
2022/07/07 09:30:43;;;;;;;4.83;2.77;;;15.90;1.00;;;;;;4972812;28;20188;-90
2022/07/07 09:33:12;;;;;;;5.75;3.05;;;16.00;1.00;;;;;;4975746;28;20670;-90
2022/07/07 09:38:28;;;;;;;3.92;2.90;;;16.00;1.00;;;;;;4977210;28;20194;-90
2022/07/07 09:40:59;;;;;;;5.30;3.03;;;16.10;1.00;;;;;;4967094;28;20311;-93
2022/07/07 09:43:28;;;;;;;4.13;2.88;;;16.10;1.00;;;;;;4965283;28;20234;-90
2022/07/07 09:46:12;;;;;;;3.63;2.90;;;16.20;1.00;;;;;;4967002;28;20205;-92
2022/07/07 09:48:41;;;;;;;5.47;2.97;;;16.20;1.00;;;;;;4966330;28;20182;-90
2022/07/07 09:51:17;;;;;;;3.30;2.60;;;16.20;1.00;;;;;;4973398;28;20232;-91
2022/07/07 09:53:59;;;;;;;2.97;2.75;;;16.30;1.00;;;;;;4977822;28;20196;-91
2022/07/07 09:56:29;;;;;;;2.90;2.60;;;16.30;1.00;;;;;;4977365;28;20224;-90
2022/07/07 09:58:57;;;;;;;5.45;2.90;;;16.40;1.00;;;;;;4978985;28;20202;-91
2022/07/07 10:01:28;;;;;;;3.33;2.47;;;16.50;1.00;;;;;;4983739;28;20253;-92
2022/07/07 10:03:57;;;;;;;4.03;3.00;;;16.60;99.90;;;;;;4977761;28;20206;-89
2022/07/07 10:06:25;;;;;;;2.92;2.40;;;16.70;99.90;;;;;;4977189;28;20326;-89
2022/07/07 10:08:57;;;;;;;2.97;2.35;;;16.80;99.90;;;;;;4977059;28;20199;-89
2022/07/07 10:11:32;;;;;;;3.28;2.40;;;17.00;1.00;;;;;;4977290;28;20229;-90
2022/07/07 10:14:09;;;;;;;2.63;2.20;;;17.00;99.90;;;;;;4977124;28;20214;-89
2022/07/07 10:16:39;;;;;;;2.45;2.25;;;17.00;1.00;;;;;;4977568;28;20179;-90
2022/07/07 10:19:06;;;;;;;3.08;2.30;;;17.10;1.00;;;;;;4977643;28;20202;-89
2022/07/07 10:21:33;;;;;;;2.95;2.20;;;17.20;1.00;;;;;;4975350;28;20223;-89
2022/07/07 10:24:01;;;;;;;3.20;2.33;;;17.20;1.00;;;;;;4967079;28;20195;-89
2022/07/07 10:26:36;;;;;;;2.70;2.38;;;17.30;99.90;;;;;;4975769;28;20207;-89
2022/07/07 10:29:04;;;;;;;4.63;2.70;;;17.40;1.00;;;;;;4976107;28;20281;-90
2022/07/07 10:31:32;;;;;;;3.25;2.47;;;17.50;1.00;;;;;;4976047;28;20211;-89
2022/07/07 10:34:02;;;;;;;2.40;2.13;;;17.50;1.00;;;;;;4976739;28;20207;-90
2022/07/07 10:37:00;;;;;;;2.83;2.50;;;17.50;99.90;;;;;;4977046;28;20207;-91
2022/07/07 10:39:31;;;;;;;3.65;3.20;;;17.40;99.90;;;;;;4965048;28;20199;-93
2022/07/07 10:42:04;;;;;;;3.30;3.00;;;17.30;99.90;;;;;;4959794;28;20214;-92
2022/07/07 10:44:34;;;;;;;3.10;2.80;;;17.30;99.90;;;;;;4961191;28;20722;-92
2022/07/07 10:47:05;;;;;;;2.92;2.72;;;17.40;99.90;;;;;;4963020;28;20405;-92
2022/07/07 10:49:40;;;;;;;4.22;2.83;;;17.30;99.90;;;;;;4960785;28;20636;-90
2022/07/07 10:52:12;;;;;;;3.10;2.80;;;17.30;99.90;;;;;;4956819;28;20203;-91
2022/07/07 10:54:41;;;;;;;3.95;3.17;;;17.30;99.90;;;;;;4957527;29;20190;-93
2022/07/07 10:57:14;;;;;;;2.88;2.60;;;17.30;99.90;;;;;;4957118;29;20203;-91
2022/07/07 11:00:07;;;;;;;3.28;2.97;;;17.30;99.90;;;;;;4956969;29;20207;-92
2022/07/07 11:02:35;;;;;;;3.45;3.15;;;17.40;99.90;;;;;;4957065;29;20187;-90
2022/07/07 11:05:25;;;;;;;3.35;3.05;;;17.40;99.90;;;;;;4956474;29;20189;-91
2022/07/07 11:08:15;;;;;;;4.38;2.90;;;17.50;99.90;;;;;;4956951;29;20266;-91
2022/07/07 11:10:49;;;;;;;3.40;3.10;;;17.60;46.10;;;;;;4957198;29;20180;-93
2022/07/07 11:13:18;;;;;;;9.52;3.78;;;17.50;1.00;;;;;;4956258;29;20192;-89
2022/07/07 11:15:46;;;;;;;5.05;3.50;;;17.40;1.00;;;;;;4956097;28;20239;-89
2022/07/07 11:18:15;;;;;;;5.05;3.85;;;17.30;1.00;;;;;;4956802;28;20233;-90
2022/07/07 11:20:55;;;;;;;4.40;3.78;;;17.30;1.00;;;;;;4956233;28;20234;-90
2022/07/07 11:23:23;;;;;;;5.18;3.80;;;17.30;99.90;;;;;;4955925;28;20214;-89
2022/07/07 11:25:56;;;;;;;4.72;4.18;;;17.30;1.00;;;;;;4957466;28;20214;-92
2022/07/07 11:28:32;;;;;;;4.65;4.20;;;17.40;43.90;;;;;;4958018;29;20211;-92
2022/07/07 11:31:05;;;;;;;4.60;4.10;;;17.40;1.00;;;;;;4956219;29;20203;-91
2022/07/07 11:33:32;;;;;;;4.68;4.00;;;17.40;3.20;;;;;;4955830;29;20204;-90
2022/07/07 11:36:13;;;;;;;5.82;3.90;;;17.40;1.00;;;;;;4956350;29;20213;-92
2022/07/07 11:38:40;;;;;;;4.03;3.63;;;17.50;99.90;;;;;;4955892;29;20187;-93
2022/07/07 11:41:07;;;;;;;4.30;3.80;;;17.60;68.20;;;;;;4956961;29;20234;-91
2022/07/07 11:43:34;;;;;;;5.60;3.63;;;17.70;1.00;;;;;;4955769;28;21018;-88
2022/07/07 11:46:01;;;;;;;4.43;4.03;;;17.70;1.00;;;;;;4955801;28;20640;-89
2022/07/07 11:48:37;;;;;;;3.92;3.53;;;17.80;1.00;;;;;;4955779;29;20204;-88
2022/07/07 11:51:07;;;;;;;3.75;3.40;;;17.90;1.00;;;;;;4956470;29;20307;-88
2022/07/07 11:53:35;;;;;;;3.30;3.00;;;17.90;1.00;;;;;;4961178;28;20238;-92
2022/07/07 11:56:03;;;;;;;3.50;3.20;;;17.90;1.00;;;;;;4955200;28;20226;-90
2022/07/07 11:58:30;;;;;;;4.53;4.13;;;18.10;1.00;;;;;;4955972;29;20663;-88
2022/07/07 12:00:58;;;;;;;4.85;4.05;;;18.20;1.00;;;;;;4966800;28;20311;-91
2022/07/07 12:03:30;;;;;;;5.20;4.70;;;18.30;99.90;;;;;;4971234;28;20231;-90
2022/07/07 12:05:58;;;;;;;5.00;4.50;;;18.40;99.90;;;;;;4963012;28;20208;-90
2022/07/07 12:08:35;;;;;;;5.63;4.93;;;18.50;99.90;;;;;;4966226;28;20211;-90
2022/07/07 12:11:08;;;;;;;8.40;5.00;;;18.50;99.90;;;;;;4970696;28;20180;-91
2022/07/07 12:13:35;;;;;;;5.00;4.50;;;18.60;76.40;;;;;;4961949;28;20196;-91
2022/07/07 12:16:04;;;;;;;5.15;4.65;;;18.60;1.00;;;;;;4963332;28;20254;-91
2022/07/07 12:18:37;;;;;;;6.03;4.35;;;18.50;1.00;;;;;;4962784;28;20195;-90
2022/07/07 12:21:06;;;;;;;5.18;4.65;;;18.50;1.00;;;;;;4973206;28;20211;-89
2022/07/07 12:23:42;;;;;;;6.88;3.92;;;18.50;1.00;;;;;;4976173;28;20262;-93
2022/07/07 12:26:14;;;;;;;4.45;4.05;;;18.50;1.00;;;;;;4961503;28;20295;-90
2022/07/07 12:28:42;;;;;;;5.18;4.30;;;18.40;1.00;;;;;;4962377;28;20279;-90
2022/07/07 12:31:17;;;;;;;4.25;3.85;;;18.40;1.00;;;;;;4975950;28;20207;-93
2022/07/07 12:33:44;;;;;;;5.45;4.10;;;18.20;1.00;;;;;;4956111;28;20188;-89
2022/07/07 12:36:14;;;;;;;5.00;3.80;;;18.10;1.00;;;;;;4956622;28;20207;-91
2022/07/07 12:38:45;;;;;;;6.28;3.80;;;18.10;1.00;;;;;;4957629;28;20204;-90
2022/07/07 12:41:24;;;;;;;11.45;3.78;;;18.10;6.00;;;;;;4974748;28;20230;-90
2022/07/07 12:43:52;;;;;;;4.97;4.00;;;18.10;97.20;;;;;;4975030;28;20642;-91
2022/07/07 12:46:19;;;;;;;6.53;4.38;;;18.00;16.80;;;;;;4975524;28;20558;-89
2022/07/07 12:48:50;;;;;;;4.32;3.92;;;18.00;99.90;;;;;;4974816;28;20227;-90
2022/07/07 12:51:32;;;;;;;5.57;3.92;;;18.00;99.90;;;;;;4988766;28;20203;-92
2022/07/07 12:54:02;;;;;;;4.60;3.90;;;18.10;99.90;;;;;;4973586;28;20278;-89
2022/07/07 12:56:33;;;;;;;3.80;3.50;;;18.20;99.90;;;;;;4973406;28;20207;-88
2022/07/07 12:59:01;;;;;;;6.53;3.72;;;18.40;99.90;;;;;;4975032;28;20191;-89
2022/07/07 13:01:30;;;;;;;3.95;3.50;;;18.50;99.90;;;;;;4968191;28;20220;-91
2022/07/07 13:03:59;;;;;;;4.00;3.60;;;18.60;99.90;;;;;;4967655;28;20192;-90
2022/07/07 13:06:26;;;;;;;3.65;3.30;;;18.70;1.00;;;;;;4958878;28;20213;-90
2022/07/07 13:08:54;;;;;;;4.32;3.63;;;18.60;1.00;;;;;;4968887;28;20263;-90
2022/07/07 13:11:23;;;;;;;3.83;3.53;;;18.70;1.00;;;;;;4970298;28;20242;-91
2022/07/07 13:13:50;;;;;;;4.97;3.60;;;18.70;1.00;;;;;;4975532;28;20187;-88
2022/07/07 13:16:17;;;;;;;4.22;3.83;;;18.60;1.00;;;;;;4973920;28;20275;-90
2022/07/07 13:18:45;;;;;;;4.55;4.15;;;18.60;1.00;;;;;;4978122;28;20187;-92
2022/07/07 13:21:12;;;;;;;4.28;3.63;;;18.70;1.00;;;;;;4973131;28;20211;-91